Time;durP1;ratioP1;P1;durP2;ratioP2;P2;SDS_P1;SDS_P2;PMS_P1;PMS_P2;Temp;Humidity;BMP_temperature;BMP_pressure;BME280_temperature;BME280_humidity;BME280_pressure;Samples;Min_cycle;Max_cycle;Signal;HPM_P1;HPM_P2
2022/01/17 00:02:12;;;;;;;10.67;7.60;;;;;;;-143.37;100.00;62585.38;4997610;28;20445;-77
2022/01/17 00:04:48;;;;;;;9.10;7.10;;;;;;;-143.37;100.00;62585.38;4983978;28;20967;-77
2022/01/17 00:07:29;;;;;;;8.37;7.30;;;;;;;-143.37;100.00;62585.38;4990536;28;20489;-77
2022/01/17 00:10:06;;;;;;;10.17;7.30;;;;;;;-143.37;100.00;62585.38;5014368;28;20449;-77
2022/01/17 00:12:45;;;;;;;10.60;7.83;;;;;;;-143.37;100.00;62585.38;5030990;28;20436;-77
2022/01/17 00:15:26;;;;;;;8.80;6.30;;;;;;;-143.37;100.00;62585.38;4997891;28;20480;-77
2022/01/17 00:20:51;;;;;;;7.13;6.27;;;;;;;-143.37;100.00;62585.38;4997052;28;20940;-78
2022/01/17 00:23:26;;;;;;;11.13;7.67;;;;;;;-143.37;100.00;62585.38;5013718;28;20441;-77
2022/01/17 00:26:03;;;;;;;9.73;7.30;;;;;;;-143.37;100.00;62585.38;5013634;28;20448;-77
2022/01/17 00:28:40;;;;;;;11.67;7.13;;;;;;;-143.37;100.00;62585.38;4996348;28;20433;-78
2022/01/17 00:31:16;;;;;;;8.33;7.00;;;;;;;-143.37;100.00;62585.38;4993816;28;20460;-78
2022/01/17 00:33:51;;;;;;;9.20;7.27;;;;;;;-143.37;100.00;62585.38;4997747;28;20445;-78
2022/01/17 00:36:27;;;;;;;11.07;7.60;;;;;;;-143.37;100.00;62585.38;5017279;28;20477;-78
2022/01/17 00:39:03;;;;;;;7.87;6.40;;;;;;;-143.37;100.00;62585.38;4988615;28;20457;-78
2022/01/17 00:41:39;;;;;;;8.83;7.00;;;;;;;-143.37;100.00;62585.38;4968058;28;20436;-78
2022/01/17 00:44:20;;;;;;;9.97;7.30;;;;;;;-143.37;100.00;62585.38;4996984;28;20444;-78
2022/01/17 00:46:56;;;;;;;9.93;8.10;;;;;;;-143.37;100.00;62585.38;5012980;28;20446;-78
2022/01/17 00:49:32;;;;;;;11.10;7.33;;;;;;;-143.37;100.00;62585.38;4996318;28;20484;-78
2022/01/17 00:52:07;;;;;;;10.80;7.27;;;;;;;-143.37;100.00;62585.38;5029714;28;20545;-77
2022/01/17 00:54:43;;;;;;;9.53;7.60;;;;;;;-143.37;100.00;62585.38;4997411;28;20456;-77
2022/01/17 00:57:18;;;;;;;9.10;6.93;;;;;;;-143.37;100.00;62585.38;4996285;28;20561;-78
2022/01/17 00:59:55;;;;;;;10.23;7.60;;;;;;;-143.37;100.00;62585.38;4996444;28;20549;-78
2022/01/17 01:02:31;;;;;;;10.40;7.87;;;;;;;-143.37;100.00;62585.38;5029488;28;21169;-78
2022/01/17 01:05:07;;;;;;;8.60;6.80;;;;;;;-143.37;100.00;62585.38;4980968;28;20550;-78
2022/01/17 01:07:43;;;;;;;7.80;6.20;;;;;;;-143.37;100.00;62585.38;5010114;28;20448;-78
2022/01/17 01:10:18;;;;;;;9.33;6.70;;;;;;;-143.37;100.00;62585.38;4978023;28;20484;-78
2022/01/17 01:12:54;;;;;;;8.30;7.27;;;;;;;-143.37;100.00;62585.38;5004459;28;20435;-78
2022/01/17 01:15:46;;;;;;;10.13;7.00;;;;;;;-143.37;100.00;62585.38;5009147;28;20526;-78
2022/01/17 01:18:37;;;;;;;8.23;6.90;;;;;;;-143.37;100.00;62585.38;5010450;28;20445;-78
2022/01/17 01:21:42;;;;;;;9.67;7.40;;;;;;;-143.37;100.00;62585.38;5011238;28;20464;-78
2022/01/17 01:30:06;;;;;;;13.00;9.73;;;;;;;-143.37;100.00;62585.38;5011548;28;20940;-77
2022/01/17 01:32:47;;;;;;;11.20;8.80;;;;;;;-143.37;100.00;62585.38;4995687;28;21011;-77
2022/01/17 01:35:26;;;;;;;11.73;9.60;;;;;;;-143.37;100.00;62585.38;5012157;28;20482;-78
2022/01/17 01:38:01;;;;;;;14.40;9.27;;;;;;;-143.37;100.00;62585.38;4995224;28;20471;-78
2022/01/17 01:40:37;;;;;;;12.30;9.90;;;;;;;-143.37;100.00;62585.38;5007520;28;20461;-78
2022/01/17 01:43:12;;;;;;;12.13;9.50;;;;;;;-143.37;100.00;62585.38;4992691;28;20484;-77
2022/01/17 01:45:48;;;;;;;11.23;8.50;;;;;;;-143.37;100.00;62585.38;5009361;28;21010;-78
2022/01/17 01:48:26;;;;;;;14.67;10.70;;;;;;;-143.37;100.00;62585.38;5008853;28;20476;-77
2022/01/17 01:51:02;;;;;;;11.93;9.70;;;;;;;-143.37;100.00;62585.38;4993260;28;20493;-77
2022/01/17 01:53:37;;;;;;;13.93;10.73;;;;;;;-143.37;100.00;62585.38;5009026;28;20538;-78
2022/01/17 01:56:13;;;;;;;13.93;10.90;;;;;;;-143.37;100.00;62585.38;5017075;28;20476;-78
2022/01/17 01:58:48;;;;;;;13.73;10.40;;;;;;;-143.37;100.00;62585.38;4988911;28;20491;-78
2022/01/17 02:01:24;;;;;;;11.30;9.87;;;;;;;-143.37;100.00;62585.38;4993023;28;20781;-78
2022/01/17 02:04:01;;;;;;;11.53;9.20;;;;;;;-143.37;100.00;62585.38;4991678;28;20521;-77
2022/01/17 02:06:36;;;;;;;14.80;10.77;;;;;;;-143.37;100.00;62585.38;4985132;28;20451;-77
2022/01/17 02:09:12;;;;;;;11.73;9.60;;;;;;;-143.37;100.00;62585.38;4956791;28;20855;-77
2022/01/17 02:11:48;;;;;;;13.90;10.23;;;;;;;-143.37;100.00;62585.38;4989008;28;20924;-77
2022/01/17 02:14:23;;;;;;;11.50;8.73;;;;;;;-143.37;100.00;62585.38;4975306;28;20466;-77
2022/01/17 02:17:02;;;;;;;12.17;9.60;;;;;;;-143.37;100.00;62585.38;4991183;28;20473;-78
2022/01/17 02:19:45;;;;;;;10.53;8.23;;;;;;;-143.37;100.00;62585.38;4993646;28;21025;-78
2022/01/17 02:22:22;;;;;;;10.80;8.63;;;;;;;-143.37;100.00;62585.38;4974513;28;20920;-77
2022/01/17 02:24:58;;;;;;;12.37;9.17;;;;;;;-143.37;100.00;62585.38;5008613;28;20456;-78
2022/01/17 02:27:34;;;;;;;11.50;8.80;;;;;;;-143.37;100.00;62585.38;4977367;28;20440;-78
2022/01/17 02:30:11;;;;;;;12.03;9.23;;;;;;;-143.37;100.00;62585.38;4956778;28;20455;-77
2022/01/17 02:32:47;;;;;;;11.73;8.93;;;;;;;-143.37;100.00;62585.38;4988552;28;20536;-77
2022/01/17 02:35:24;;;;;;;12.20;9.40;;;;;;;-143.37;100.00;62585.38;4956267;28;20577;-77
2022/01/17 02:38:00;;;;;;;12.43;9.67;;;;;;;-143.37;100.00;62585.38;4982682;28;20472;-78
2022/01/17 02:40:36;;;;;;;13.30;8.60;;;;;;;-143.37;100.00;62585.38;4972383;28;20458;-78
2022/01/17 02:43:13;;;;;;;11.17;8.13;;;;;;;-143.37;100.00;62585.38;5007863;28;20438;-78
2022/01/17 02:48:43;;;;;;;11.40;8.27;;;;;;;-143.37;100.00;62585.38;4996740;28;20447;-78
2022/01/17 02:51:18;;;;;;;10.50;8.47;;;;;;;-143.37;100.00;62585.38;5011971;28;20937;-78
2022/01/17 02:53:55;;;;;;;12.93;8.97;;;;;;;-143.37;100.00;62585.38;4988599;28;20845;-78
2022/01/17 02:56:32;;;;;;;9.83;8.53;;;;;;;-143.37;100.00;62585.38;4974738;28;20899;-78
2022/01/17 02:59:08;;;;;;;9.40;8.03;;;;;;;-143.37;100.00;62585.38;4986721;28;20459;-77
2022/01/17 03:01:43;;;;;;;11.80;7.97;;;;;;;-143.37;100.00;62585.38;4979520;28;20441;-78
2022/01/17 03:04:18;;;;;;;11.80;8.13;;;;;;;-143.37;100.00;62585.38;4995335;28;20457;-78
2022/01/17 03:06:54;;;;;;;12.53;9.50;;;;;;;-143.37;100.00;62585.38;4992277;28;20437;-78
2022/01/17 03:09:40;;;;;;;10.73;8.27;;;;;;;-143.37;100.00;62585.38;4995102;28;20545;-78
2022/01/17 03:12:16;;;;;;;11.50;8.47;;;;;;;-143.37;100.00;62585.38;4995318;28;20452;-78
2022/01/17 03:14:51;;;;;;;9.90;8.20;;;;;;;-143.37;100.00;62585.38;4994044;28;20451;-78
2022/01/17 03:17:27;;;;;;;10.47;8.37;;;;;;;-143.37;100.00;62585.38;4994025;28;20565;-78
2022/01/17 03:20:03;;;;;;;13.30;8.30;;;;;;;-143.37;100.00;62585.38;5027107;28;20461;-77
2022/01/17 03:22:39;;;;;;;9.60;8.10;;;;;;;-143.37;100.00;62585.38;4974832;28;20844;-78
2022/01/17 03:25:16;;;;;;;12.30;9.10;;;;;;;-143.37;100.00;62585.38;5018887;28;21000;-78
2022/01/17 03:27:51;;;;;;;12.70;9.60;;;;;;;-143.37;100.00;62585.38;5008793;28;20534;-78
2022/01/17 03:30:28;;;;;;;11.80;9.63;;;;;;;-143.37;100.00;62585.38;4995141;28;20461;-78
2022/01/17 03:33:05;;;;;;;12.30;9.10;;;;;;;-143.37;100.00;62585.38;5008921;28;20443;-77
2022/01/17 03:35:41;;;;;;;10.97;8.43;;;;;;;-143.37;100.00;62585.38;5026281;28;20545;-78
2022/01/17 03:38:19;;;;;;;10.67;8.50;;;;;;;-143.37;100.00;62585.38;4995424;28;20564;-78
2022/01/17 03:40:58;;;;;;;9.90;8.10;;;;;;;-143.37;100.00;62585.38;5011786;28;20439;-78
2022/01/17 03:43:34;;;;;;;11.07;8.10;;;;;;;-143.37;100.00;62585.38;5009277;28;20442;-78
2022/01/17 03:46:09;;;;;;;11.50;8.50;;;;;;;-143.37;100.00;62585.38;5009386;28;20499;-78
2022/01/17 03:48:45;;;;;;;11.07;7.63;;;;;;;-143.37;100.00;62585.38;4993754;28;20442;-78
2022/01/17 03:51:20;;;;;;;13.67;8.90;;;;;;;-143.37;100.00;62585.38;4994194;28;20784;-78
2022/01/17 03:53:56;;;;;;;10.57;7.97;;;;;;;-143.37;100.00;62585.38;5010151;28;20446;-78
2022/01/17 03:56:33;;;;;;;10.37;8.17;;;;;;;-143.37;100.00;62585.38;5006368;28;20531;-78
2022/01/17 03:59:08;;;;;;;10.97;8.50;;;;;;;-143.37;100.00;62585.38;5006112;28;20507;-78
2022/01/17 04:01:44;;;;;;;12.07;7.80;;;;;;;-143.37;100.00;62585.38;5011917;28;20454;-78
2022/01/17 04:04:20;;;;;;;10.83;8.53;;;;;;;-143.37;100.00;62585.38;4993978;28;20985;-77
2022/01/17 04:06:56;;;;;;;13.20;9.30;;;;;;;-143.37;100.00;62585.38;4993409;28;20534;-78
2022/01/17 04:09:31;;;;;;;11.73;8.87;;;;;;;-143.37;100.00;62585.38;4994252;28;20461;-78
2022/01/17 04:12:10;;;;;;;11.27;8.33;;;;;;;-143.37;100.00;62585.38;4997207;28;20482;-78
2022/01/17 04:14:46;;;;;;;13.87;10.23;;;;;;;-143.37;100.00;62585.38;5013723;28;20553;-78
2022/01/17 04:17:23;;;;;;;9.60;7.93;;;;;;;-143.37;100.00;62585.38;4977432;28;20881;-78
2022/01/17 04:20:05;;;;;;;11.53;8.80;;;;;;;-143.37;100.00;62585.38;5024680;28;20501;-78
2022/01/17 04:22:45;;;;;;;14.70;11.47;;;;;;;-143.37;100.00;62585.38;4977882;28;20459;-78
2022/01/17 04:25:21;;;;;;;12.90;9.20;;;;;;;-143.37;100.00;62585.38;5011049;28;20926;-78
2022/01/17 04:27:59;;;;;;;13.03;10.43;;;;;;;-143.37;100.00;62585.38;5010877;28;20922;-78
2022/01/17 04:30:36;;;;;;;12.37;9.57;;;;;;;-143.37;100.00;62585.38;5027528;28;20553;-78
2022/01/17 04:33:12;;;;;;;12.97;9.40;;;;;;;-143.37;100.00;62585.38;4996818;28;20455;-78
2022/01/17 04:35:47;;;;;;;12.70;8.77;;;;;;;-143.37;100.00;62585.38;4995760;28;20545;-78
2022/01/17 04:38:23;;;;;;;11.80;9.17;;;;;;;-143.37;100.00;62585.38;5029075;28;20471;-78
2022/01/17 04:41:03;;;;;;;12.07;8.60;;;;;;;-143.37;100.00;62585.38;5012883;28;20447;-78
2022/01/17 04:45:06;;;;;;;12.20;9.60;;;;;;;-143.37;100.00;62585.38;4982347;28;20562;-78
2022/01/17 04:46:52;;;;;;;11.57;9.30;;;;;;;-143.37;100.00;62585.38;4996932;28;20458;-78
2022/01/17 04:49:28;;;;;;;9.73;7.43;;;;;;;-143.37;100.00;62585.38;5029339;28;20451;-78
2022/01/17 04:52:12;;;;;;;9.93;7.93;;;;;;;-143.37;100.00;62585.38;5029426;28;20535;-79
2022/01/17 04:54:52;;;;;;;10.50;9.10;;;;;;;-143.37;100.00;62585.38;5010463;28;20478;-78
2022/01/17 04:57:28;;;;;;;11.37;8.17;;;;;;;-143.37;100.00;62585.38;5009658;28;20467;-78
2022/01/17 05:00:07;;;;;;;9.20;7.33;;;;;;;-143.37;100.00;62585.38;5007013;28;20890;-78
2022/01/17 05:02:43;;;;;;;13.73;8.77;;;;;;;-143.37;100.00;62585.38;5015681;28;20470;-78
2022/01/17 05:05:19;;;;;;;10.27;8.60;;;;;;;-143.37;100.00;62585.38;5013560;28;20457;-78
2022/01/17 05:07:54;;;;;;;11.10;7.67;;;;;;;-143.37;100.00;62585.38;4985902;28;20499;-78
2022/01/17 05:10:30;;;;;;;13.27;8.20;;;;;;;-143.37;100.00;62585.38;4999356;28;20451;-78
2022/01/17 05:13:08;;;;;;;9.60;7.50;;;;;;;-143.37;100.00;62585.38;5005828;28;20443;-78
2022/01/17 05:15:49;;;;;;;11.17;8.17;;;;;;;-143.37;100.00;62585.38;4992991;28;20460;-78
2022/01/17 05:19:48;;;;;;;10.40;7.87;;;;;;;-143.37;100.00;62585.38;5007045;28;20484;-78
2022/01/17 05:21:22;;;;;;;12.53;8.83;;;;;;;-143.37;100.00;62585.38;5007244;28;20553;-78
2022/01/17 05:23:58;;;;;;;12.43;9.03;;;;;;;-143.37;100.00;62585.38;5007879;28;20456;-78
2022/01/17 05:26:33;;;;;;;11.97;8.60;;;;;;;-143.37;100.00;62585.38;5028243;28;20447;-78
2022/01/17 05:29:09;;;;;;;13.50;9.57;;;;;;;-143.37;100.00;62585.38;4995861;28;20468;-78
2022/01/17 05:31:46;;;;;;;11.77;8.40;;;;;;;-143.37;100.00;62585.38;5028742;28;20447;-78
2022/01/17 05:34:21;;;;;;;12.93;8.93;;;;;;;-143.37;100.00;62585.38;4990005;28;20446;-78
2022/01/17 05:36:57;;;;;;;12.07;8.13;;;;;;;-143.37;100.00;62585.38;4988198;28;20547;-78
2022/01/17 05:39:33;;;;;;;9.80;7.63;;;;;;;-143.37;100.00;62585.38;5021511;28;20460;-78
2022/01/17 05:42:09;;;;;;;10.03;8.87;;;;;;;-143.37;100.00;62585.38;5012477;28;20500;-78
2022/01/17 05:44:46;;;;;;;10.47;8.57;;;;;;;-143.37;100.00;62585.38;4995276;28;20457;-78
2022/01/17 05:47:23;;;;;;;11.40;8.70;;;;;;;-143.37;100.00;62585.38;4995076;28;20521;-78
2022/01/17 05:50:01;;;;;;;11.13;7.80;;;;;;;-143.37;100.00;62585.38;5011836;28;20450;-78
2022/01/17 05:52:37;;;;;;;10.50;7.67;;;;;;;-143.37;100.00;62585.38;5009649;28;20445;-78
2022/01/17 05:55:16;;;;;;;10.13;8.30;;;;;;;-143.37;100.00;62585.38;5010416;28;20788;-78
2022/01/17 05:57:51;;;;;;;10.83;8.50;;;;;;;-143.37;100.00;62585.38;4996680;28;20520;-78
2022/01/17 06:00:27;;;;;;;10.77;7.70;;;;;;;-143.37;100.00;62585.38;5028114;28;20465;-78
2022/01/17 06:03:04;;;;;;;11.90;8.27;;;;;;;-143.37;100.00;62585.38;4992098;28;20953;-78
2022/01/17 06:05:39;;;;;;;10.07;7.83;;;;;;;-143.37;100.00;62585.38;4995264;28;20447;-78
2022/01/17 06:08:15;;;;;;;9.47;8.10;;;;;;;-143.37;100.00;62585.38;5010869;28;20482;-78
2022/01/17 06:10:51;;;;;;;10.63;7.70;;;;;;;-143.37;100.00;62585.38;5012916;28;20450;-78
2022/01/17 06:13:27;;;;;;;10.00;7.13;;;;;;;-143.37;100.00;62585.38;5012528;28;20423;-78
2022/01/17 06:16:02;;;;;;;9.43;7.60;;;;;;;-143.37;100.00;62585.38;5010279;28;20490;-78
2022/01/17 06:18:39;;;;;;;8.33;6.97;;;;;;;-143.37;100.00;62585.38;5005502;28;20511;-78
2022/01/17 06:21:15;;;;;;;12.13;8.17;;;;;;;-143.37;100.00;62585.38;4980911;28;20446;-78
2022/01/17 06:23:52;;;;;;;11.17;9.17;;;;;;;-143.37;100.00;62585.38;5027761;28;20439;-78
2022/01/17 06:26:28;;;;;;;9.10;7.30;;;;;;;-143.37;100.00;62585.38;4979475;28;20445;-78
2022/01/17 06:29:04;;;;;;;8.23;7.17;;;;;;;-143.37;100.00;62585.38;5013383;28;20449;-78
2022/01/17 06:31:41;;;;;;;11.63;7.77;;;;;;;-143.37;100.00;62585.38;5009173;28;20446;-78
2022/01/17 06:34:18;;;;;;;10.93;7.77;;;;;;;-143.37;100.00;62585.38;5008915;28;20435;-78
2022/01/17 06:36:53;;;;;;;9.60;7.43;;;;;;;-143.37;100.00;62585.38;4985571;28;20802;-78
2022/01/17 06:39:29;;;;;;;10.07;7.57;;;;;;;-143.37;100.00;62585.38;5010460;28;20486;-78
2022/01/17 06:42:05;;;;;;;10.67;7.20;;;;;;;-143.37;100.00;62585.38;4991133;28;20643;-78
2022/01/17 06:44:41;;;;;;;12.13;6.50;;;;;;;-143.37;100.00;62585.38;4974803;28;20472;-78
2022/01/17 06:47:17;;;;;;;10.00;6.80;;;;;;;-143.37;100.00;62585.38;5020012;28;20439;-78
2022/01/17 06:49:54;;;;;;;8.70;6.03;;;;;;;-143.37;100.00;62585.38;5027584;28;20454;-78
2022/01/17 06:52:30;;;;;;;11.23;7.00;;;;;;;-143.37;100.00;62585.38;5027390;28;20454;-78
2022/01/17 06:55:06;;;;;;;7.63;6.83;;;;;;;-143.37;100.00;62585.38;5007193;28;20456;-78
2022/01/17 06:57:41;;;;;;;9.70;7.20;;;;;;;-143.37;100.00;62585.38;4990525;28;20479;-78
2022/01/17 07:00:17;;;;;;;8.30;6.60;;;;;;;-143.37;100.00;62585.38;4990338;28;20816;-78
2022/01/17 07:02:52;;;;;;;8.53;6.90;;;;;;;-143.37;100.00;62585.38;4975873;28;20447;-77
2022/01/17 07:05:30;;;;;;;7.80;6.40;;;;;;;-143.37;100.00;62585.38;4993662;28;20454;-78
2022/01/17 07:08:05;;;;;;;8.17;6.77;;;;;;;-143.37;100.00;62585.38;4990999;28;20420;-78
2022/01/17 07:10:41;;;;;;;7.90;5.67;;;;;;;-143.37;100.00;62585.38;4988368;28;20885;-78
2022/01/17 07:13:16;;;;;;;9.13;6.93;;;;;;;-143.37;100.00;62585.38;5006426;28;20445;-78
2022/01/17 07:15:52;;;;;;;7.80;5.80;;;;;;;-143.37;100.00;62585.38;4991072;28;20450;-78
2022/01/17 07:18:27;;;;;;;10.53;7.20;;;;;;;-143.37;100.00;62585.38;4988929;28;20459;-77
2022/01/17 07:21:04;;;;;;;8.27;6.80;;;;;;;-143.37;100.00;62585.38;5006445;28;20440;-78
2022/01/17 07:23:40;;;;;;;7.63;6.13;;;;;;;-143.37;100.00;62585.38;5025165;28;20446;-78
2022/01/17 07:26:15;;;;;;;8.30;6.53;;;;;;;-143.37;100.00;62585.38;5023414;28;20446;-78
2022/01/17 07:28:51;;;;;;;8.00;6.60;;;;;;;-143.37;100.00;62585.38;5001101;28;20665;-78
2022/01/17 07:31:27;;;;;;;6.23;5.03;;;;;;;-143.37;100.00;62585.38;4992396;28;20444;-78
2022/01/17 07:34:03;;;;;;;9.60;6.67;;;;;;;-143.37;100.00;62585.38;5010773;28;20486;-78
2022/01/17 07:36:39;;;;;;;9.43;6.50;;;;;;;-143.37;100.00;62585.38;5005706;28;20451;-78
2022/01/17 07:39:15;;;;;;;6.27;5.30;;;;;;;-143.37;100.00;62585.38;4994016;28;20464;-78
2022/01/17 07:41:50;;;;;;;6.50;5.60;;;;;;;-143.37;100.00;62585.38;4985573;28;20543;-78
2022/01/17 07:44:27;;;;;;;7.77;5.90;;;;;;;-143.37;100.00;62585.38;4999681;28;20450;-79
2022/01/17 07:47:05;;;;;;;9.30;7.33;;;;;;;-143.37;100.00;62585.38;4997791;28;20442;-78
2022/01/17 07:49:42;;;;;;;6.70;6.00;;;;;;;-143.37;100.00;62585.38;4994604;28;20463;-78
2022/01/17 07:52:19;;;;;;;7.43;6.43;;;;;;;-143.37;100.00;62585.38;5012670;28;20455;-78
2022/01/17 07:54:55;;;;;;;6.27;5.30;;;;;;;-143.37;100.00;62585.38;4996922;28;20439;-77
2022/01/17 07:57:31;;;;;;;8.27;5.70;;;;;;;-143.37;100.00;62585.38;4998068;28;20487;-78
2022/01/17 08:00:08;;;;;;;8.57;6.90;;;;;;;-143.37;100.00;62585.38;4996514;28;20444;-78
2022/01/17 08:02:44;;;;;;;7.30;5.43;;;;;;;-143.37;100.00;62585.38;4982064;28;20451;-77
2022/01/17 08:05:19;;;;;;;8.33;6.20;;;;;;;-143.37;100.00;62585.38;5014371;28;20451;-77
2022/01/17 08:07:56;;;;;;;7.30;6.13;;;;;;;-143.37;100.00;62585.38;4997742;28;20433;-78
2022/01/17 08:10:32;;;;;;;6.57;5.80;;;;;;;-143.37;100.00;62585.38;5007104;28;21029;-78
2022/01/17 08:13:09;;;;;;;10.73;6.70;;;;;;;-143.37;100.00;62585.38;4994783;28;20455;-78
2022/01/17 08:15:45;;;;;;;8.03;5.97;;;;;;;-143.37;100.00;62585.38;5011220;28;21591;-78
2022/01/17 08:18:21;;;;;;;8.40;6.10;;;;;;;-143.37;100.00;62585.38;5002382;28;21025;-78
2022/01/17 08:20:56;;;;;;;7.77;5.93;;;;;;;-143.37;100.00;62585.38;4979020;28;20453;-78
2022/01/17 08:23:33;;;;;;;7.73;6.20;;;;;;;-143.37;100.00;62585.38;4988939;28;20547;-78
2022/01/17 08:26:08;;;;;;;7.20;5.90;;;;;;;-143.37;100.00;62585.38;5008403;28;20524;-78
2022/01/17 08:28:44;;;;;;;7.83;6.80;;;;;;;-143.37;100.00;62585.38;5024121;28;20447;-78
2022/01/17 08:31:20;;;;;;;7.20;6.00;;;;;;;-143.37;100.00;62585.38;5002621;28;20547;-78
2022/01/17 08:33:55;;;;;;;6.30;5.27;;;;;;;-143.37;100.00;62585.38;4979549;28;20868;-78
2022/01/17 08:36:31;;;;;;;8.10;5.90;;;;;;;-143.37;100.00;62585.38;4995814;28;20435;-78
2022/01/17 08:39:10;;;;;;;8.37;6.03;;;;;;;-143.37;100.00;62585.38;4993231;28;20478;-78
2022/01/17 08:41:47;;;;;;;8.37;5.60;;;;;;;-143.37;100.00;62585.38;5009214;28;20446;-78
2022/01/17 08:44:23;;;;;;;11.93;5.50;;;;;;;-143.37;100.00;62585.38;5025148;28;20456;-78
2022/01/17 08:46:58;;;;;;;6.83;5.20;;;;;;;-143.37;100.00;62585.38;5027106;28;20454;-78
2022/01/17 08:49:34;;;;;;;9.17;5.40;;;;;;;-143.37;100.00;62585.38;5025786;28;20450;-78
2022/01/17 08:52:10;;;;;;;8.03;5.73;;;;;;;-143.37;100.00;62585.38;4990542;28;20433;-78
2022/01/17 08:54:47;;;;;;;7.40;5.23;;;;;;;-143.37;100.00;62585.38;4985704;28;20458;-78
2022/01/17 08:57:22;;;;;;;5.43;4.87;;;;;;;-143.37;100.00;62585.38;4979978;28;20456;-78
2022/01/17 08:59:58;;;;;;;6.67;5.70;;;;;;;-143.37;100.00;62585.38;5003684;28;20483;-78
2022/01/17 09:02:34;;;;;;;6.87;5.17;;;;;;;-143.37;100.00;62585.38;4994296;28;20451;-78
2022/01/17 09:05:10;;;;;;;5.80;5.07;;;;;;;-143.37;100.00;62585.38;5017016;28;20439;-78
2022/01/17 09:07:47;;;;;;;8.30;5.67;;;;;;;-143.37;100.00;62585.38;5002583;28;20444;-78
2022/01/17 09:10:25;;;;;;;8.03;5.30;;;;;;;-143.37;100.00;62585.38;4991366;28;20458;-78
2022/01/17 09:13:01;;;;;;;8.03;6.37;;;;;;;-143.37;100.00;62585.38;4995328;28;20455;-78
2022/01/17 09:15:37;;;;;;;8.97;6.40;;;;;;;-143.37;100.00;62585.38;4995044;28;20477;-78
2022/01/17 09:18:14;;;;;;;7.80;5.60;;;;;;;-143.37;100.00;62585.38;5003112;28;20451;-78
2022/01/17 09:20:49;;;;;;;6.80;5.33;;;;;;;-143.37;100.00;62585.38;5010413;28;20451;-78
2022/01/17 09:23:26;;;;;;;6.53;5.30;;;;;;;-143.37;100.00;62585.38;4992499;28;20442;-78
2022/01/17 09:26:03;;;;;;;7.77;5.63;;;;;;;-143.37;100.00;62585.38;4993002;28;20437;-78
2022/01/17 09:28:39;;;;;;;6.13;5.53;;;;;;;-143.37;100.00;62585.38;5000317;28;20800;-78
2022/01/17 09:31:16;;;;;;;6.10;4.70;;;;;;;-143.37;100.00;62585.38;4998888;28;20819;-78
2022/01/17 09:33:51;;;;;;;5.43;4.67;;;;;;;-143.37;100.00;62585.38;5002371;28;20479;-78
2022/01/17 09:36:29;;;;;;;6.90;4.87;;;;;;;-143.37;100.00;62585.38;4977086;28;20834;-78
2022/01/17 09:39:06;;;;;;;6.63;5.00;;;;;;;-143.37;100.00;62585.38;4986958;28;20460;-78
2022/01/17 09:41:43;;;;;;;5.47;4.97;;;;;;;-143.37;100.00;62585.38;5002271;28;20898;-78
2022/01/17 09:44:18;;;;;;;4.90;4.30;;;;;;;-143.37;100.00;62585.38;5003405;28;20470;-78
2022/01/17 09:46:56;;;;;;;5.90;5.23;;;;;;;-143.37;100.00;62585.38;4990381;28;20445;-78
2022/01/17 09:49:37;;;;;;;5.13;4.63;;;;;;;-143.37;100.00;62585.38;5003326;28;20462;-78
2022/01/17 09:52:34;;;;;;;7.47;5.60;;;;;;;-143.37;100.00;62585.38;5003434;28;20452;-78
2022/01/17 09:55:12;;;;;;;6.83;5.30;;;;;;;-143.37;100.00;62585.38;4995599;28;20444;-78
2022/01/17 09:57:52;;;;;;;5.53;4.90;;;;;;;-143.37;100.00;62585.38;5027570;28;20470;-78
2022/01/17 10:00:31;;;;;;;6.43;5.27;;;;;;;-143.37;100.00;62585.38;5012406;28;20484;-78
2022/01/17 10:03:10;;;;;;;5.90;5.17;;;;;;;-143.37;100.00;62585.38;5013181;28;20542;-78
2022/01/17 10:05:46;;;;;;;8.37;5.97;;;;;;;-143.37;100.00;62585.38;4999523;28;20503;-78
2022/01/17 10:08:22;;;;;;;6.60;5.13;;;;;;;-143.37;100.00;62585.38;4985141;28;20445;-78
2022/01/17 10:11:00;;;;;;;5.70;5.10;;;;;;;-143.37;100.00;62585.38;4993365;28;20538;-78
2022/01/17 10:13:39;;;;;;;15.70;5.60;;;;;;;-143.37;100.00;62585.38;5011932;28;20483;-78
2022/01/17 10:16:18;;;;;;;9.70;5.00;;;;;;;-143.37;100.00;62585.38;5000393;28;20452;-78
2022/01/17 10:18:58;;;;;;;5.73;4.83;;;;;;;-143.37;100.00;62585.38;4998616;28;20470;-78
2022/01/17 10:21:40;;;;;;;6.23;5.27;;;;;;;-143.37;100.00;62585.38;4990493;28;20422;-78
2022/01/17 10:24:24;;;;;;;6.33;4.87;;;;;;;-143.37;100.00;62585.38;4992326;28;20437;-78
2022/01/17 10:27:22;;;;;;;7.40;5.10;;;;;;;-143.37;100.00;62585.38;4979191;28;20443;-78
2022/01/17 10:30:27;;;;;;;5.00;3.93;;;;;;;-143.37;100.00;62585.38;4979722;28;20842;-78
2022/01/17 10:36:03;;;;;;;5.07;4.20;;;;;;;-143.37;100.00;62585.38;5005713;28;20877;-78
2022/01/17 10:38:39;;;;;;;4.00;3.60;;;;;;;-143.37;100.00;62585.38;4982953;28;20436;-78
2022/01/17 10:41:15;;;;;;;4.73;3.70;;;;;;;-143.37;100.00;62585.38;5004303;28;20951;-78
2022/01/17 10:43:50;;;;;;;4.10;2.73;;;;;;;-143.37;100.00;62585.38;4984165;28;20444;-78
2022/01/17 10:46:28;;;;;;;3.80;3.20;;;;;;;-143.37;100.00;62585.38;5019984;28;20448;-78
2022/01/17 10:49:04;;;;;;;3.37;2.87;;;;;;;-143.37;100.00;62585.38;4993682;28;20479;-78
2022/01/17 10:51:39;;;;;;;2.87;2.53;;;;;;;-143.37;100.00;62585.38;4991014;28;20440;-78
2022/01/17 10:54:18;;;;;;;2.63;2.43;;;;;;;-143.37;100.00;62585.38;4994659;28;20467;-78
2022/01/17 10:56:57;;;;;;;5.97;3.53;;;;;;;-143.37;100.00;62585.38;5011641;28;20876;-78
2022/01/17 10:59:34;;;;;;;3.30;2.83;;;;;;;-143.37;100.00;62585.38;4992953;28;20511;-78
2022/01/17 11:02:11;;;;;;;3.20;2.90;;;;;;;-143.37;100.00;62585.38;5026873;28;20455;-77
2022/01/17 11:04:49;;;;;;;3.40;3.10;;;;;;;-143.37;100.00;62585.38;4995972;28;20468;-78
2022/01/17 11:07:24;;;;;;;2.70;2.47;;;;;;;-143.37;100.00;62585.38;4991545;28;20438;-78
2022/01/17 11:10:07;;;;;;;3.00;2.70;;;;;;;-143.37;100.00;62585.38;5011560;28;20531;-78
2022/01/17 11:12:45;;;;;;;3.60;2.70;;;;;;;-143.37;100.00;62585.38;5026273;28;20449;-78
2022/01/17 11:15:21;;;;;;;3.20;2.90;;;;;;;-143.37;100.00;62585.38;4984316;28;20509;-78
2022/01/17 11:18:01;;;;;;;2.63;2.40;;;;;;;-143.37;100.00;62585.38;5005579;28;20429;-78
2022/01/17 11:20:37;;;;;;;3.30;3.00;;;;;;;-143.37;100.00;62585.38;4984976;28;20496;-78
2022/01/17 11:23:12;;;;;;;5.13;3.83;;;;;;;-143.37;100.00;62585.38;4993209;28;20533;-78
2022/01/17 11:25:52;;;;;;;4.90;3.50;;;;;;;-143.37;100.00;62585.38;4963148;28;20496;-78
2022/01/17 11:28:29;;;;;;;3.90;3.40;;;;;;;-143.37;100.00;62585.38;4999014;28;20445;-78
2022/01/17 11:31:07;;;;;;;3.90;3.23;;;;;;;-143.37;100.00;62585.38;4995038;28;20448;-78
2022/01/17 11:33:46;;;;;;;3.10;2.10;;;;;;;-143.37;100.00;62585.38;5001100;28;20514;-78
2022/01/17 11:36:21;;;;;;;2.73;2.43;;;;;;;-143.37;100.00;62585.38;4992553;28;20449;-78
2022/01/17 11:39:00;;;;;;;3.00;2.70;;;;;;;-143.37;100.00;62585.38;5026384;28;20443;-78
2022/01/17 11:41:36;;;;;;;2.50;2.10;;;;;;;-143.37;100.00;62585.38;5010512;28;20901;-78
2022/01/17 11:44:11;;;;;;;3.03;2.30;;;;;;;-143.37;100.00;62585.38;5014822;28;20452;-78
2022/01/17 11:46:51;;;;;;;2.90;2.47;;;;;;;-143.37;100.00;62585.38;4971800;28;20495;-78
2022/01/17 11:49:31;;;;;;;4.27;3.30;;;;;;;-143.37;100.00;62585.38;4979828;28;20447;-78
2022/01/17 11:52:12;;;;;;;6.43;5.40;;;;;;;-143.37;100.00;62585.38;5013325;28;20450;-78
2022/01/17 11:54:47;;;;;;;5.60;4.77;;;;;;;-143.37;100.00;62585.38;4994360;28;20447;-78
2022/01/17 11:57:23;;;;;;;5.80;4.87;;;;;;;-143.37;100.00;62585.38;5030743;28;20446;-78
2022/01/17 12:00:04;;;;;;;7.30;5.17;;;;;;;-143.37;100.00;62585.38;5004589;28;20482;-78
2022/01/17 12:02:49;;;;;;;5.07;3.90;;;;;;;-143.37;100.00;62585.38;5014388;28;20437;-78
2022/01/17 12:05:35;;;;;;;5.50;4.40;;;;;;;-143.37;100.00;62585.38;5029033;28;20448;-78